Flight Track Log - Related Links

Times and Time Zones

All times are in EDT time to prevent confusion due to time zone crossing. See the UAL582 flight status page for this flight to view local times or setup timezone preferences in your user account.


Time Position Orientation Groundspeed Altitude Reporting Facility
EDT Latitude Longitude Course Direction KTS MPH feet Rate Location/Type
Wed 05:10:35 PM 43.6667 -79.6333 289° West 90 104 1,000  Level Toronto Center
Wed 05:11:35 PM 43.6833 -79.7000 289° West 170 196 2,900 1,900 Climbing Toronto Center
Wed 05:12:35 PM 43.7167 -79.7500 313° West 230 265 4,800 1,500 Climbing Toronto Center
Wed 05:13:35 PM 43.7667 -79.8333 310° West 250 288 5,900 1,100 Climbing Toronto Center
Wed 05:14:35 PM 43.7667 -79.9333 270° West 250 288 7,000 550 Climbing Toronto Center
Wed 05:15:35 PM 43.7667 -80.0333 270° West 250 288 7,000 350 Level Toronto Center
Wed 05:16:35 PM 43.7500 -80.1167 255° West 250 288 7,700 1,950 Climbing Toronto Center
Wed 05:17:35 PM 43.7333 -80.2333 259° West 260 299 10,900 2,550 Climbing Toronto Center
Wed 05:18:35 PM 43.7333 -80.3333 270° West 300 345 12,800 2,900 Climbing Toronto Center
Wed 05:19:35 PM 43.7167 -80.4333 257° West 300 345 16,700 3,100 Climbing Toronto Center
Wed 05:20:35 PM 43.7167 -80.5500 270° West 290 334 19,000 2,200 Climbing Toronto Center
Wed 05:21:35 PM 43.7000 -80.6667 259° West 300 345 21,100 1,900 Climbing Toronto Center
Wed 05:22:35 PM 43.6833 -80.7833 259° West 320 368 22,800 1,800 Climbing Toronto Center
Wed 05:23:35 PM 43.6833 -80.9167 270° West 320 368 24,700 1,700 Climbing Toronto Center
Wed 05:24:35 PM 43.7167 -81.0333 292° West 330 380 26,200 1,400 Climbing Toronto Center
Wed 05:25:35 PM 43.7500 -81.1500 292° West 350 403 27,500 1,500 Climbing Toronto Center
Wed 05:26:35 PM 43.7833 -81.3000 287° West 360 414 29,200 1,250 Climbing Toronto Center
Wed 05:27:35 PM 43.8000 -81.4333 280° West 350 403 30,000 400 Climbing Toronto Center
Wed 05:28:35 PM 43.8333 -81.5500 292° West 340 391 30,000 -150 Level Toronto Center
Wed 05:29:35 PM 43.8667 -81.6833 289° West 340 391 29,700 -1,000 Descending Toronto Center
Wed 05:30:35 PM 43.9000 -81.8000 292° West 340 391 28,000 -850 Descending Toronto Center
Wed 05:31:35 PM 43.9167 -81.9500 279° West 350 403 28,000  Level Toronto Center
Wed 05:32:35 PM 43.9333 -82.0667 281° West 350 403 28,000  Level Toronto Center
Wed 05:33:35 PM 43.9667 -82.2000 289° West 350 403 28,000  Level Toronto Center
Wed 05:34:35 PM 43.9667 -82.3167 270° West 350 403 28,000  Level Toronto Center
Wed 05:35:35 PM 43.9667 -82.4833 270° West 350 403 28,000 -45 Level Toronto Center
Wed 05:36:49 PM 43.9739 -82.6422 274° West 351 404 27,900  Descending Minneapolis Center
Wed 05:37:52 PM 43.9717 -82.7758 269° West 349 402 28,000  Climbing Minneapolis Center
Wed 05:38:54 PM 43.9706 -82.9153 269° West 357 411 27,900 -48 Descending Minneapolis Center
Wed 05:39:56 PM 43.9669 -83.0572 268° West 365 420 27,900  Level Minneapolis Center
Wed 05:40:58 PM 43.9475 -83.2250 261° West 366 421 27,900  Level Minneapolis Center
Wed 05:42:00 PM 43.9292 -83.3642 260° West 367 422 27,900  Level Minneapolis Center
Wed 05:43:02 PM 43.9144 -83.5053 262° West 369 425 27,900 44 Level Minneapolis Center
Wed 05:44:16 PM 43.8944 -83.6508 259° West 371 427 28,000 44 Climbing Minneapolis Center
Wed 05:45:19 PM 43.8756 -83.8189 261° West 369 425 28,000  Level Minneapolis Center
Wed 05:46:21 PM 43.8578 -83.9594 260° West 370 426 28,000  Level Minneapolis Center
Wed 05:47:23 PM 43.8403 -84.0997 260° West 370 426 28,000  Level Minneapolis Center
Wed 05:48:37 PM 43.8189 -84.2694 260° West 373 429 28,000  Level Minneapolis Center
Wed 05:49:40 PM 43.7975 -84.4378 260° West 372 428 28,000  Level Minneapolis Center
Wed 05:50:42 PM 43.7786 -84.5794 260° West 374 430 28,000  Level Minneapolis Center
Wed 05:51:44 PM 43.7606 -84.7211 260° West 374 430 28,000  Level Minneapolis Center
Wed 05:52:46 PM 43.7417 -84.8628 260° West 376 433 28,000  Level Minneapolis Center
Wed 05:53:48 PM 43.7236 -85.0031 260° West 374 430 28,000  Level Minneapolis Center
Wed 05:54:50 PM 43.6939 -85.1706 256° West 374 430 28,000  Level Minneapolis Center
Wed 05:56:01 PM 43.5753 -85.2531 207° Southwest 410 472 28,000  Level Chicago Center
Wed 05:57:03 PM 43.4647 -85.2861 192° South 408 470 28,000  Level Chicago Center
Wed 05:58:05 PM 43.3536 -85.3217 193° South 409 471 28,000  Level Chicago Center
Wed 05:59:07 PM 43.2417 -85.3558 193° South 410 472 28,000  Level Chicago Center
Wed 06:00:09 PM 43.1294 -85.3906 193° South 410 472 28,000 -288 Level Chicago Center
Wed 06:01:12 PM 43.0192 -85.4250 193° South 405 466 27,400 -774 Descending Chicago Center
Wed 06:02:13 PM 42.9078 -85.4594 193° South 407 468 26,400 -976 Descending Chicago Center
Wed 06:03:15 PM 42.8050 -85.5106 200° South 405 466 25,400 -1,016 Descending Chicago Center
Wed 06:04:17 PM 42.7569 -85.6614 247° West 369 425 24,300 -1,016 Descending Chicago Center
Wed 06:05:19 PM 42.7333 -85.7956 257° West 363 418 23,300 -968 Descending Chicago Center
Wed 06:06:21 PM 42.7094 -85.9267 256° West 358 412 22,300 -976 Descending Chicago Center
Wed 06:07:22 PM 42.6856 -86.0558 256° West 352 405 21,300 -976 Descending Chicago Center
Wed 06:08:24 PM 42.6619 -86.1839 256° West 349 402 20,300 -629 Descending Chicago Center
Wed 06:09:26 PM 42.6392 -86.3114 256° West 348 400 20,000 -145 Descending Chicago Center
Wed 06:10:28 PM 42.6142 -86.4333 254° West 337 388 20,000  Level Chicago Center
Wed 06:11:30 PM 42.5917 -86.5572 256° West 339 390 20,000 -97 Level Chicago Center
Wed 06:12:32 PM 42.5661 -86.6922 256° West 338 389 19,800 -1,258 Descending Chicago Center
Wed 06:13:34 PM 42.5375 -86.8142 252° West 344 396 17,400 -2,661 Descending Chicago Center
Wed 06:14:36 PM 42.4994 -86.9514 249° West 350 403 14,300 -2,710 Descending Chicago Center
Wed 06:15:38 PM 42.4653 -87.0733 249° West 347 399 11,800 -2,081 Descending Chicago Center
Wed 06:16:40 PM 42.4317 -87.1931 249° West 342 394 10,000 -871 Descending Chicago Center
Wed 06:17:42 PM 42.3997 -87.3139 250° West 343 395 10,000  Level Chicago Center
Wed 06:18:44 PM 42.3658 -87.4372 250° West 337 388 10,000  Level Chicago Center
Wed 06:19:46 PM 42.3097 -87.5675 240° Southwest 349 402 10,000 -97 Level Chicago Center
Wed 06:20:48 PM 42.2389 -87.6406 217° Southwest 324 373 9,800 -823 Descending Chicago Center
Wed 06:21:50 PM 42.1767 -87.7069 218° Southwest 293 337 8,300 -1,306 Descending Chicago Center
Wed 06:22:52 PM 42.1161 -87.7706 218° Southwest 280 322 7,100 -629 Descending Chicago Center
Wed 06:23:54 PM 42.0794 -87.8525 239° Southwest 276 318 7,000 -50 Descending Chicago Center
Wed 06:24:51 PM 42.0667 -87.9500 260° West 227 261 7,000 -103 Level Chicago TRACON
Wed 06:25:51 PM 42.0667 -88.0333 270° West 222 255 6,800 -626 Descending Chicago TRACON
Wed 06:26:46 PM 42.0667 -88.1167 270° West 220 253 5,800 -1,252 Descending Chicago TRACON
Wed 06:27:46 PM 42.0500 -88.1833 251° West 236 272 4,400 -857 Descending Chicago TRACON
Wed 06:28:52 PM 41.9833 -88.1667 169° South 219 252 4,000 -364 Descending Chicago TRACON

Login

Don't have an account? Register now (free) for customized features, flight alerts, and more!